Flight Track Log - Related Links

Times and Time Zones

All times are in EDT time to prevent confusion due to time zone crossing. See the KAP29 flight status page for this flight to view local times or setup timezone preferences in your user account.

Time Position Orientation Groundspeed Altitude Reporting Facility
EDT Latitude Longitude Course Direction KTS MPH feet Rate Location/Type
Sat 05:42:23 PM 42.3833 -71.0167 340° North 104 120 500  Level KA90
Sat 05:43:23 PM 42.4167 -71.0333 340° North 119 137 1,600 950 Climbing KA90
Sat 05:44:23 PM 42.4500 -71.0500 340° North 121 139 2,400 600 Climbing KA90
Sat 05:45:23 PM 42.4833 -71.0667 340° North 123 142 2,800 450 Climbing KA90
Sat 05:46:23 PM 42.5000 -71.0833 324° Northwest 122 140 3,300 474 Climbing KA90
Sat 05:47:17 PM 42.5333 -71.1000 340° North 118 136 3,700 522 Climbing KA90
Sat 05:48:18 PM 42.5667 -71.1167 340° North 121 139 4,300 522 Climbing KA90
Sat 05:49:12 PM 42.6000 -71.1333 340° North 126 145 4,700 500 Climbing KA90
Sat 05:50:18 PM 42.6333 -71.1500 340° North 124 143 5,300 478 Climbing KA90
Sat 05:51:30 PM 42.6667 -71.1667 340° North 129 148 5,800 476 Climbing KA90
Sat 05:52:24 PM 42.7000 -71.2000 324° Northwest 121 139 6,300 531 Climbing KA90
Sat 05:53:23 PM 42.7167 -71.2333 304° West 120 138 6,800 450 Climbing KA90
Sat 05:54:24 PM 42.7333 -71.2667 304° West 124 143 7,200 429 Climbing KA90
Sat 05:55:29 PM 42.7667 -71.3000 324° Northwest 125 144 7,700 381 Climbing KA90
Sat 05:56:30 PM 42.8000 -71.3333 324° Northwest 132 152 8,000 149 Climbing KA90
Sat 05:57:30 PM 42.8167 -71.3833 294° West 149 171 8,000  Level KA90
Sat 05:58:30 PM 42.8500 -71.4167 324° Northwest 157 181 8,000  Level KA90
Sat 05:59:30 PM 42.8833 -71.4667 312° West 154 177 8,000  Level KA90
Sat 06:00:30 PM 42.9167 -71.5000 324° Northwest 157 181 8,000 48 Level KA90
Sat 06:01:36 PM 42.9500 -71.5500 312° West 154 177 8,100 50 Climbing KA90
Sat 06:02:30 PM 42.9667 -71.5833 304° West 148 170 8,100  Level KA90
Sat 06:04:15 PM 43.0144 -71.6536 313° West 142 163 8,100  Level Boston Center
Sat 06:05:27 PM 43.0461 -71.6958 316° Northwest 142 163 8,100 45 Level Boston Center
Sat 06:06:27 PM 43.0778 -71.7467 310° West 142 163 8,200  Climbing Boston Center
Sat 06:07:27 PM 43.1050 -71.7833 315° West 142 163 8,100 -50 Descending Boston Center
Sat 06:08:27 PM 43.1344 -71.8228 316° Northwest 142 163 8,100  Level Boston Center
Sat 06:09:27 PM 43.1617 -71.8594 316° Northwest 147 169 8,100 45 Level Boston Center
Sat 06:10:39 PM 43.1889 -71.8992 313° West 147 169 8,200  Climbing Boston Center
Sat 06:11:39 PM 43.2206 -71.9444 314° West 142 163 8,100 -50 Descending Boston Center
Sat 06:12:39 PM 43.2519 -71.9897 314° West 142 163 8,100  Level Boston Center
Sat 06:13:39 PM 43.2769 -72.0236 315° West 142 163 8,100  Level Boston Center
Sat 06:14:39 PM 43.3064 -72.0664 313° West 142 163 8,100  Level Boston Center
Sat 06:15:39 PM 43.3314 -72.1003 315° West 142 163 8,100  Level Boston Center
Sat 06:16:39 PM 43.3608 -72.1461 311° West 136 157 8,100  Level Boston Center
Sat 06:17:39 PM 43.3858 -72.1800 315° West 141 162 8,100  Level Boston Center
Sat 06:18:39 PM 43.4150 -72.2200 315° West 141 162 8,100  Level Boston Center
Sat 06:19:39 PM 43.4422 -72.2600 313° West 141 162 8,100  Level Boston Center
Sat 06:20:39 PM 43.4694 -72.2969 315° West 141 162 8,100  Level Boston Center
Sat 06:21:51 PM 43.5028 -72.3456 313° West 141 162 8,100 45 Level Boston Center
Sat 06:22:51 PM 43.5300 -72.3856 313° West 141 162 8,200  Climbing Boston Center
Sat 06:23:51 PM 43.5569 -72.4258 313° West 141 162 8,100 -50 Descending Boston Center
Sat 06:24:51 PM 43.5842 -72.4631 315° West 141 162 8,100  Level Boston Center
Sat 06:25:51 PM 43.6133 -72.5061 313° West 146 168 8,100  Level Boston Center
Sat 06:26:51 PM 43.6383 -72.5461 311° West 146 168 8,100  Level Boston Center
Sat 06:27:51 PM 43.6611 -72.5922 304° West 141 162 8,100  Level Boston Center
Sat 06:28:51 PM 43.6881 -72.6411 307° West 141 162 8,100  Level Boston Center
Sat 06:29:51 PM 43.7067 -72.6928 297° West 146 168 8,100  Level Boston Center
Sat 06:30:51 PM 43.7275 -72.7389 302° West 151 174 8,100  Level Boston Center
Sat 06:31:51 PM 43.7483 -72.7906 299° West 151 174 8,100  Level Boston Center
Sat 06:32:51 PM 43.7711 -72.8369 304° West 151 174 8,100  Level Boston Center
Sat 06:33:51 PM 43.7917 -72.8831 302° West 151 174 8,100  Level Boston Center
Sat 06:34:51 PM 43.8122 -72.9264 303° West 146 168 8,100  Level Boston Center
Sat 06:35:51 PM 43.8331 -72.9753 301° West 141 162 8,100  Level Boston Center
Sat 06:36:51 PM 43.8556 -73.0217 304° West 141 162 8,100  Level Boston Center
Sat 06:37:51 PM 43.8783 -73.0681 304° West 146 168 8,100  Level Boston Center
Sat 06:38:51 PM 43.8989 -73.1172 300° West 146 168 8,100  Level Boston Center
Sat 06:39:51 PM 43.9214 -73.1664 302° West 146 168 8,100  Level Boston Center
Sat 06:40:51 PM 43.9461 -73.2214 302° West 151 174 8,100  Level Boston Center
Sat 06:41:51 PM 43.9667 -73.2708 300° West 151 174 8,100  Level Boston Center
Sat 06:43:03 PM 43.9892 -73.3203 302° West 156 180 8,100  Level Boston Center
Sat 06:44:03 PM 44.0178 -73.3811 303° West 163 188 8,100  Level Boston Center
Sat 06:45:15 PM 44.0425 -73.4308 305° West 163 188 8,100  Level Boston Center
Sat 06:46:15 PM 44.0650 -73.4861 300° West 163 188 8,100  Level Boston Center
Sat 06:47:15 PM 44.0872 -73.5414 299° West 163 188 8,100  Level Boston Center
Sat 06:48:15 PM 44.1117 -73.5908 305° West 163 188 8,100  Level Boston Center
Sat 06:49:15 PM 44.1364 -73.6406 305° West 163 188 8,100  Level Boston Center
Sat 06:50:15 PM 44.1567 -73.6931 298° West 163 188 8,100 -300 Level Boston Center
Sat 06:51:15 PM 44.1767 -73.7483 297° West 163 188 7,500 -600 Descending Boston Center
Sat 06:52:15 PM 44.2011 -73.8011 303° West 158 182 6,900 -450 Descending Boston Center
Sat 06:53:15 PM 44.2214 -73.8481 301° West 158 182 6,600 -300 Descending Boston Center
Sat 06:55:00 PM 44.2562 -73.9298 303° West  Level FlightAware Approximate

Login

Don't have an account? Register now (free) for customized features, flight alerts, and more!